createdAt,value
2023-04-16T00:01:01.267Z,9.54
2023-04-16T00:03:28.041Z,9.58
2023-04-16T00:05:54.874Z,9.68
2023-04-16T00:08:21.502Z,9.33
2023-04-16T00:10:48.089Z,9.48
2023-04-16T00:13:14.665Z,9.47
2023-04-16T00:15:41.232Z,9.45
2023-04-16T00:18:07.841Z,9.59
2023-04-16T00:20:34.446Z,9.76
2023-04-16T00:23:01.000Z,9.48
2023-04-16T00:25:27.598Z,9.45
2023-04-16T00:27:54.217Z,9.53
2023-04-16T00:30:20.898Z,9.52
2023-04-16T00:32:47.517Z,9.51
2023-04-16T00:35:14.096Z,9.42
2023-04-16T00:37:40.687Z,9.64
2023-04-16T00:40:07.278Z,9.56
2023-04-16T00:42:33.871Z,9.29
2023-04-16T00:45:00.471Z,9.18
2023-04-16T00:47:27.074Z,9.25
2023-04-16T00:49:53.658Z,9.23
2023-04-16T00:52:20.248Z,9.14
2023-04-16T00:54:46.789Z,9.08
2023-04-16T00:57:13.377Z,9.14
2023-04-16T00:59:39.963Z,9.22
2023-04-16T01:02:06.810Z,9.07
2023-04-16T01:04:33.536Z,9.15
2023-04-16T01:07:00.250Z,9.21
2023-04-16T01:09:26.855Z,9.35
2023-04-16T01:11:53.402Z,9.41
2023-04-16T01:14:20.025Z,9.38
2023-04-16T01:16:46.626Z,9.40
2023-04-16T01:19:13.182Z,9.39
2023-04-16T01:21:39.776Z,9.34
2023-04-16T01:24:06.769Z,9.40
2023-04-16T01:26:33.470Z,9.39
2023-04-16T01:29:00.140Z,9.46
2023-04-16T01:31:26.799Z,9.53
2023-04-16T01:33:53.418Z,9.44
2023-04-16T01:36:20.000Z,9.43
2023-04-16T01:38:47.630Z,9.51
2023-04-16T01:41:14.199Z,9.40
2023-04-16T01:43:41.608Z,9.35
2023-04-16T01:46:08.234Z,9.35
2023-04-16T01:48:34.847Z,9.32
2023-04-16T01:51:01.441Z,9.39
2023-04-16T01:53:27.995Z,9.29
2023-04-16T01:55:54.584Z,9.17
2023-04-16T01:58:21.132Z,9.23
2023-04-16T02:00:47.782Z,9.38
2023-04-16T02:03:14.471Z,9.32
2023-04-16T02:05:41.165Z,9.43
2023-04-16T02:08:07.793Z,9.38
2023-04-16T02:10:34.483Z,9.24
2023-04-16T02:13:01.104Z,9.26
2023-04-16T02:15:27.769Z,9.28
2023-04-16T02:17:54.361Z,9.22
2023-04-16T02:20:20.988Z,9.25
2023-04-16T02:22:47.585Z,9.06
2023-04-16T02:25:14.204Z,9.19
2023-04-16T02:27:41.617Z,9.36
2023-04-16T02:30:08.205Z,9.19
2023-04-16T02:32:34.823Z,9.19
2023-04-16T02:35:01.484Z,9.21
2023-04-16T02:37:28.143Z,9.10
2023-04-16T02:39:54.703Z,9.06
2023-04-16T02:42:21.480Z,8.97
2023-04-16T02:44:48.083Z,8.81
2023-04-16T02:47:14.710Z,8.86
2023-04-16T02:49:41.305Z,8.91
2023-04-16T02:52:07.942Z,8.99
2023-04-16T02:54:34.529Z,8.90
2023-04-16T02:57:01.095Z,8.91
2023-04-16T02:59:27.780Z,8.82
2023-04-16T03:01:54.432Z,8.86
2023-04-16T03:04:21.119Z,8.80
2023-04-16T03:06:47.703Z,8.84
2023-04-16T03:09:14.276Z,8.70
2023-04-16T03:11:40.840Z,8.80
2023-04-16T03:14:07.449Z,8.61
2023-04-16T03:16:34.005Z,8.58
2023-04-16T03:19:00.596Z,8.66
2023-04-16T03:21:27.150Z,8.74
2023-04-16T03:23:53.723Z,8.69
2023-04-16T03:26:20.450Z,8.68
2023-04-16T03:28:47.080Z,8.66
2023-04-16T03:31:13.712Z,8.71
2023-04-16T03:33:40.337Z,8.82
2023-04-16T03:36:07.015Z,8.89
2023-04-16T03:38:33.603Z,8.93
2023-04-16T03:41:00.199Z,9.01
2023-04-16T03:43:26.803Z,9.06
2023-04-16T03:45:53.388Z,8.76
2023-04-16T03:48:19.966Z,8.45
2023-04-16T03:50:46.949Z,8.57
2023-04-16T03:53:13.572Z,8.70
2023-04-16T03:55:40.151Z,8.75
2023-04-16T03:58:06.735Z,8.75
2023-04-16T04:00:33.344Z,8.91
2023-04-16T04:03:00.102Z,8.87
2023-04-16T04:05:26.916Z,8.96
2023-04-16T04:07:53.490Z,8.79
2023-04-16T04:10:20.074Z,8.93
2023-04-16T04:12:46.662Z,8.94
2023-04-16T04:15:13.232Z,8.91
2023-04-16T04:17:39.931Z,8.77
2023-04-16T04:20:06.631Z,8.86
2023-04-16T04:22:33.201Z,8.91
2023-04-16T04:24:59.758Z,8.86
2023-04-16T04:27:26.363Z,8.70
2023-04-16T04:29:52.983Z,8.63
2023-04-16T04:32:19.628Z,8.91
2023-04-16T04:34:46.210Z,8.92
2023-04-16T04:37:12.806Z,8.73
2023-04-16T04:39:39.769Z,8.72
2023-04-16T04:42:06.385Z,8.82
2023-04-16T04:44:33.018Z,9.04
2023-04-16T04:46:59.642Z,8.83
2023-04-16T04:49:26.260Z,8.94
2023-04-16T04:51:52.880Z,8.83
2023-04-16T04:54:19.478Z,8.86
2023-04-16T04:56:46.650Z,9.13
2023-04-16T04:59:13.213Z,9.18
2023-04-16T05:01:39.827Z,9.21
2023-04-16T05:04:06.468Z,9.34
2023-04-16T05:06:33.085Z,9.42
2023-04-16T05:08:59.686Z,9.38
2023-04-16T05:11:26.272Z,9.43
2023-04-16T05:13:52.935Z,9.44
2023-04-16T05:16:19.527Z,9.66
2023-04-16T05:18:46.118Z,9.64
2023-04-16T05:21:12.702Z,9.31
2023-04-16T05:23:39.276Z,9.34
2023-04-16T05:26:05.850Z,9.25
2023-04-16T05:28:32.570Z,9.46
2023-04-16T05:30:59.248Z,9.61
2023-04-16T05:33:25.881Z,9.75
2023-04-16T05:35:52.459Z,9.74
2023-04-16T05:38:19.045Z,9.60
2023-04-16T05:40:45.812Z,9.91
2023-04-16T05:43:12.407Z,10.14
2023-04-16T05:45:38.976Z,10.09
2023-04-16T05:48:05.562Z,9.93
2023-04-16T05:50:32.419Z,9.92
2023-04-16T05:52:58.965Z,10.29
2023-04-16T05:55:25.546Z,10.55
2023-04-16T05:57:52.127Z,10.65
2023-04-16T06:00:18.728Z,10.58
2023-04-16T06:02:45.427Z,10.23
2023-04-16T06:05:12.132Z,10.63
2023-04-16T06:07:38.754Z,10.69
2023-04-16T06:10:05.395Z,10.78
2023-04-16T06:12:34.023Z,11.03
2023-04-16T06:15:00.608Z,11.25
2023-04-16T06:17:27.180Z,11.16
2023-04-16T06:19:54.134Z,11.08
2023-04-16T06:22:20.892Z,11.16
2023-04-16T06:24:47.483Z,11.40
2023-04-16T06:27:15.086Z,11.59
2023-04-16T06:29:42.031Z,11.69
2023-04-16T06:32:08.953Z,11.29
2023-04-16T06:34:35.631Z,11.24
2023-04-16T06:37:02.193Z,11.13
2023-04-16T06:39:28.772Z,11.44
2023-04-16T06:41:55.363Z,11.57
2023-04-16T06:44:22.091Z,11.75
2023-04-16T06:46:49.169Z,11.74
2023-04-16T06:49:15.770Z,11.98
2023-04-16T06:51:42.396Z,12.25
2023-04-16T06:54:09.004Z,12.27
2023-04-16T06:56:35.587Z,12.50
2023-04-16T06:59:02.173Z,12.54
2023-04-16T07:01:28.841Z,12.51
2023-04-16T07:03:55.638Z,12.65
2023-04-16T07:06:22.388Z,12.76
2023-04-16T07:08:48.959Z,12.69
2023-04-16T07:11:15.551Z,12.79
2023-04-16T07:13:42.145Z,12.90
2023-04-16T07:16:08.806Z,12.99
2023-04-16T07:18:35.462Z,13.09
2023-04-16T07:21:02.045Z,13.37
2023-04-16T07:23:28.620Z,13.56
2023-04-16T07:25:55.213Z,13.12
2023-04-16T07:28:21.858Z,13.34
2023-04-16T07:30:48.447Z,13.64
2023-04-16T07:33:15.006Z,13.90
2023-04-16T07:35:41.645Z,13.66
2023-04-16T07:38:08.218Z,13.55
2023-04-16T07:40:34.820Z,13.77
2023-04-16T07:43:03.885Z,14.04
2023-04-16T07:45:30.450Z,14.13
2023-04-16T07:47:57.154Z,14.45
2023-04-16T07:50:23.832Z,14.77
2023-04-16T07:52:50.493Z,14.84
2023-04-16T07:55:17.049Z,14.49
2023-04-16T07:57:43.850Z,13.93
2023-04-16T08:00:10.471Z,14.15
2023-04-16T08:02:37.547Z,14.71
2023-04-16T08:05:04.356Z,14.37
2023-04-16T08:07:32.718Z,14.38
2023-04-16T08:10:00.666Z,14.88
2023-04-16T08:12:27.303Z,15.03
2023-04-16T08:14:53.930Z,15.31
2023-04-16T08:17:20.510Z,14.99
2023-04-16T08:19:47.117Z,15.25
2023-04-16T08:22:13.784Z,14.86
2023-04-16T08:24:40.366Z,15.15
2023-04-16T08:27:17.684Z,14.92
2023-04-16T08:29:45.499Z,14.77
2023-04-16T08:32:12.104Z,14.98
2023-04-16T08:34:38.932Z,14.85
2023-04-16T08:37:05.508Z,14.73
2023-04-16T08:39:32.121Z,14.97
2023-04-16T08:41:58.673Z,15.13
2023-04-16T08:44:25.237Z,15.46
2023-04-16T08:46:51.855Z,15.38
2023-04-16T08:49:18.442Z,15.52
2023-04-16T08:51:45.025Z,15.45
2023-04-16T08:54:11.611Z,15.22
2023-04-16T08:56:38.221Z,15.16
2023-04-16T08:59:04.813Z,15.47
2023-04-16T09:01:31.442Z,15.60
2023-04-16T09:03:58.193Z,16.18
2023-04-16T09:06:24.885Z,15.93
2023-04-16T09:08:51.506Z,15.76
2023-04-16T09:11:18.088Z,15.37
2023-04-16T09:13:44.982Z,16.00
2023-04-16T09:16:11.699Z,16.33
2023-04-16T09:18:38.380Z,16.77
2023-04-16T09:21:04.983Z,16.98
2023-04-16T09:23:31.549Z,16.48
2023-04-16T09:25:58.117Z,15.95
2023-04-16T09:28:24.699Z,16.11
2023-04-16T09:30:51.289Z,16.33
2023-04-16T09:33:17.916Z,16.53
2023-04-16T09:35:44.496Z,16.50
2023-04-16T09:38:11.104Z,16.61
2023-04-16T09:40:37.950Z,16.97
2023-04-16T09:43:04.523Z,16.71
2023-04-16T09:45:31.154Z,17.18
2023-04-16T09:47:57.805Z,17.57
2023-04-16T09:50:24.413Z,16.97
2023-04-16T09:52:51.134Z,17.34
2023-04-16T09:55:17.717Z,17.42
2023-04-16T09:57:44.316Z,17.46
2023-04-16T10:00:11.317Z,17.71
2023-04-16T10:02:38.325Z,17.77
2023-04-16T10:05:04.992Z,17.74
2023-04-16T10:07:31.636Z,17.91
2023-04-16T10:09:58.191Z,17.60
2023-04-16T10:12:24.827Z,17.24
2023-04-16T10:14:51.422Z,16.74
2023-04-16T10:17:18.070Z,16.63
2023-04-16T10:19:44.630Z,16.88
2023-04-16T10:22:11.359Z,17.24
2023-04-16T10:24:37.992Z,17.72
2023-04-16T10:27:04.552Z,17.72
2023-04-16T10:29:31.188Z,18.08
2023-04-16T10:31:57.804Z,18.18
2023-04-16T10:34:24.368Z,18.66
2023-04-16T10:36:50.981Z,19.08
2023-04-16T10:39:17.631Z,19.40
2023-04-16T10:41:44.397Z,19.77
2023-04-16T10:44:11.101Z,19.39
2023-04-16T10:46:37.929Z,19.59
2023-04-16T10:49:04.600Z,20.65
2023-04-16T10:51:31.183Z,19.62
2023-04-16T10:53:57.805Z,19.27
2023-04-16T10:56:24.406Z,18.85
2023-04-16T10:58:51.230Z,18.33
2023-04-16T11:01:19.046Z,18.51
2023-04-16T11:03:45.834Z,18.71
2023-04-16T11:06:12.561Z,18.73
2023-04-16T11:08:53.380Z,18.59
2023-04-16T11:11:21.022Z,17.68
2023-04-16T11:13:47.746Z,17.83
2023-04-16T11:16:14.403Z,18.09
2023-04-16T11:18:41.570Z,18.08
2023-04-16T11:21:17.780Z,17.86
2023-04-16T11:23:44.410Z,18.03
2023-04-16T11:26:10.977Z,19.06
2023-04-16T11:28:37.596Z,19.97
2023-04-16T11:31:04.238Z,20.49
2023-04-16T11:33:30.872Z,20.24
2023-04-16T11:35:57.437Z,20.72
2023-04-16T11:38:24.118Z,20.19
2023-04-16T11:40:50.706Z,18.26
2023-04-16T11:43:17.295Z,17.53
2023-04-16T11:45:43.945Z,18.24
2023-04-16T11:48:11.259Z,18.76
2023-04-16T11:50:37.953Z,19.37
2023-04-16T11:53:04.566Z,18.94
2023-04-16T11:55:31.155Z,19.25
2023-04-16T11:57:57.778Z,19.22
2023-04-16T12:00:25.091Z,19.17
2023-04-16T12:02:51.980Z,19.27
2023-04-16T12:05:18.799Z,18.57
2023-04-16T12:07:45.410Z,18.98
2023-04-16T12:10:12.100Z,19.19
2023-04-16T12:12:38.735Z,19.05
2023-04-16T12:15:05.460Z,19.25
2023-04-16T12:17:32.159Z,19.15
2023-04-16T12:19:58.807Z,18.88
2023-04-16T12:22:25.398Z,19.22
2023-04-16T12:24:51.970Z,19.92
2023-04-16T12:27:18.536Z,20.22
2023-04-16T12:29:45.123Z,20.10
2023-04-16T12:32:11.764Z,20.14
2023-04-16T12:34:48.761Z,20.23
2023-04-16T12:37:16.189Z,20.06
2023-04-16T12:39:43.102Z,19.97
2023-04-16T12:42:09.769Z,19.56
2023-04-16T12:44:36.426Z,18.78
2023-04-16T12:47:03.013Z,18.76
2023-04-16T12:49:30.637Z,19.53
2023-04-16T12:51:57.243Z,19.53
2023-04-16T12:54:23.840Z,19.73
2023-04-16T12:56:50.423Z,19.83
2023-04-16T12:59:17.015Z,20.09
2023-04-16T13:01:43.692Z,20.33
2023-04-16T13:04:10.555Z,19.96
2023-04-16T13:06:37.238Z,19.87
2023-04-16T13:09:03.816Z,20.05
2023-04-16T13:11:30.513Z,19.96
2023-04-16T13:13:57.323Z,20.01
2023-04-16T13:16:24.006Z,19.70
2023-04-16T13:18:50.593Z,18.80
2023-04-16T13:21:17.182Z,17.96
2023-04-16T13:23:43.749Z,17.29
2023-04-16T13:26:12.680Z,17.08
2023-04-16T13:28:39.273Z,17.46
2023-04-16T13:31:06.150Z,16.96
2023-04-16T13:33:32.768Z,17.28
2023-04-16T13:35:59.354Z,17.08
2023-04-16T13:38:25.949Z,17.30
2023-04-16T13:40:52.510Z,17.48
2023-04-16T13:43:19.140Z,17.56
2023-04-16T13:45:45.716Z,17.28
2023-04-16T13:48:12.326Z,17.29
2023-04-16T13:50:38.957Z,17.58
2023-04-16T13:53:05.609Z,17.60
2023-04-16T13:55:32.165Z,17.60
2023-04-16T13:57:58.894Z,17.88
2023-04-16T14:00:25.448Z,17.81
2023-04-16T14:02:52.334Z,17.46
2023-04-16T14:05:19.035Z,17.51
2023-04-16T14:07:45.590Z,18.43
2023-04-16T14:10:12.202Z,18.67
2023-04-16T14:12:39.132Z,19.38
2023-04-16T14:15:05.851Z,18.66
2023-04-16T14:17:32.529Z,17.69
2023-04-16T14:19:59.186Z,17.86
2023-04-16T14:22:25.778Z,18.54
2023-04-16T14:24:52.481Z,17.45
2023-04-16T14:27:19.082Z,17.02
2023-04-16T14:29:45.736Z,17.64
2023-04-16T14:32:12.401Z,18.56
2023-04-16T14:34:39.024Z,19.06
2023-04-16T14:37:05.623Z,19.86
2023-04-16T14:39:32.290Z,20.47
2023-04-16T14:41:58.915Z,20.55
2023-04-16T14:44:25.525Z,19.75
2023-04-16T14:46:52.118Z,19.73
2023-04-16T14:49:18.832Z,19.09
2023-04-16T14:51:45.774Z,18.30
2023-04-16T14:54:12.409Z,18.60
2023-04-16T14:56:38.992Z,18.08
2023-04-16T14:59:05.612Z,17.88
2023-04-16T15:01:32.346Z,16.91
2023-04-16T15:04:01.373Z,17.17
2023-04-16T15:06:28.716Z,17.40
2023-04-16T15:08:55.297Z,17.34
2023-04-16T15:11:21.994Z,17.01
2023-04-16T15:13:48.667Z,16.98
2023-04-16T15:16:15.272Z,17.30
2023-04-16T15:18:41.870Z,17.10
2023-04-16T15:21:09.520Z,17.00
2023-04-16T15:23:37.784Z,16.94
2023-04-16T15:26:05.431Z,17.07
2023-04-16T15:28:32.025Z,16.94
2023-04-16T15:30:58.661Z,17.32
2023-04-16T15:33:25.286Z,16.75
2023-04-16T15:35:51.919Z,16.55
2023-04-16T15:38:18.698Z,16.78
2023-04-16T15:40:45.289Z,17.26
2023-04-16T15:43:11.867Z,17.59
2023-04-16T15:45:38.466Z,17.22
2023-04-16T15:48:05.087Z,17.12
2023-04-16T15:50:31.668Z,16.76
2023-04-16T15:52:58.286Z,16.97
2023-04-16T15:55:24.891Z,17.12
2023-04-16T15:57:51.508Z,17.21
2023-04-16T16:00:18.142Z,16.85
2023-04-16T16:02:45.222Z,17.18
2023-04-16T16:05:12.320Z,17.47
2023-04-16T16:07:39.134Z,17.60
2023-04-16T16:10:05.738Z,17.34
2023-04-16T16:12:32.309Z,17.49
2023-04-16T16:14:59.131Z,17.58
2023-04-16T16:17:26.142Z,17.96
2023-04-16T16:19:52.841Z,18.03
2023-04-16T16:22:19.417Z,18.09
2023-04-16T16:24:46.005Z,18.27
2023-04-16T16:29:56.753Z,18.04
2023-04-16T16:32:23.359Z,18.15
2023-04-16T16:34:49.982Z,18.12
2023-04-16T16:37:16.655Z,17.81
2023-04-16T16:39:43.284Z,17.56
2023-04-16T16:42:09.847Z,17.79
2023-04-16T16:44:36.475Z,17.91
2023-04-16T16:47:03.082Z,17.61
2023-04-16T16:49:30.146Z,17.06
2023-04-16T16:51:56.748Z,16.64
2023-04-16T16:54:23.441Z,16.82
2023-04-16T16:56:50.037Z,16.51
2023-04-16T16:59:16.604Z,16.36
2023-04-16T17:01:43.240Z,16.33
2023-04-16T17:04:09.897Z,16.07
2023-04-16T17:06:36.632Z,16.18
2023-04-16T17:09:03.306Z,16.63
2023-04-16T17:11:29.923Z,16.57
2023-04-16T17:13:56.594Z,16.74
2023-04-16T17:16:23.178Z,16.93
2023-04-16T17:18:49.771Z,16.98
2023-04-16T17:21:16.861Z,16.89
2023-04-16T17:23:43.568Z,16.96
2023-04-16T17:26:10.216Z,16.92
2023-04-16T17:28:37.011Z,16.92
2023-04-16T17:31:03.794Z,16.90
2023-04-16T17:33:30.522Z,16.88
2023-04-16T17:35:57.123Z,16.82
2023-04-16T17:38:23.673Z,16.70
2023-04-16T17:40:50.260Z,16.67
2023-04-16T17:43:16.883Z,16.56
2023-04-16T17:45:43.511Z,16.50
2023-04-16T17:48:10.198Z,16.40
2023-04-16T17:50:39.431Z,16.48
2023-04-16T17:53:06.240Z,16.52
2023-04-16T17:55:32.835Z,16.44
2023-04-16T17:57:59.435Z,16.33
2023-04-16T18:00:26.012Z,16.28
2023-04-16T18:02:52.797Z,16.28
2023-04-16T18:05:19.496Z,16.22
2023-04-16T18:07:46.058Z,15.93
2023-04-16T18:10:12.625Z,15.76
2023-04-16T18:12:39.233Z,15.82
2023-04-16T18:15:05.803Z,15.85
2023-04-16T18:17:32.434Z,15.49
2023-04-16T18:19:59.170Z,15.48
2023-04-16T18:22:27.475Z,15.22
2023-04-16T18:24:54.567Z,15.31
2023-04-16T18:27:21.154Z,15.28
2023-04-16T18:29:49.423Z,15.43
2023-04-16T18:32:16.423Z,15.51
2023-04-16T18:34:43.146Z,15.61
2023-04-16T18:37:09.784Z,15.60
2023-04-16T18:39:36.428Z,15.61
2023-04-16T18:42:02.995Z,15.66
2023-04-16T18:44:29.602Z,15.71
2023-04-16T18:46:56.276Z,15.27
2023-04-16T18:49:22.927Z,15.12
2023-04-16T18:51:49.490Z,15.12
2023-04-16T18:54:16.088Z,15.17
2023-04-16T18:56:42.879Z,15.29
2023-04-16T18:59:09.784Z,15.11
2023-04-16T19:01:37.585Z,15.33
2023-04-16T19:04:04.370Z,15.22
2023-04-16T19:06:30.970Z,15.19
2023-04-16T19:08:57.671Z,15.19
2023-04-16T19:11:24.293Z,15.26
2023-04-16T19:13:50.867Z,15.24
2023-04-16T19:16:17.676Z,15.02
2023-04-16T19:18:44.298Z,15.03
2023-04-16T19:21:11.069Z,15.11
2023-04-16T19:23:37.724Z,15.10
2023-04-16T19:26:04.383Z,15.03
2023-04-16T19:28:30.946Z,14.93
2023-04-16T19:30:57.628Z,14.80
2023-04-16T19:33:24.262Z,14.79
2023-04-16T19:35:50.821Z,14.81
2023-04-16T19:38:17.440Z,14.71
2023-04-16T19:40:44.071Z,14.76
2023-04-16T19:43:10.654Z,14.80
2023-04-16T19:45:37.405Z,14.89
2023-04-16T19:48:04.021Z,14.89
2023-04-16T19:50:30.632Z,14.83
2023-04-16T19:52:57.203Z,14.92
2023-04-16T19:55:23.810Z,14.85
2023-04-16T19:57:50.400Z,14.77
2023-04-16T20:00:17.021Z,14.78
2023-04-16T20:02:43.728Z,14.89
2023-04-16T20:05:10.373Z,14.78
2023-04-16T20:07:36.936Z,14.64
2023-04-16T20:10:03.567Z,14.81
2023-04-16T20:12:30.131Z,14.72
2023-04-16T20:14:56.717Z,14.61
2023-04-16T20:17:23.448Z,14.80
2023-04-16T20:19:50.362Z,14.65
2023-04-16T20:22:16.948Z,14.49
2023-04-16T20:24:44.492Z,14.34
2023-04-16T20:27:12.316Z,14.35
2023-04-16T20:29:38.936Z,14.46
2023-04-16T20:32:05.526Z,14.45
2023-04-16T20:34:32.210Z,14.41
2023-04-16T20:36:58.826Z,14.33
2023-04-16T20:39:25.390Z,14.49
2023-04-16T20:41:51.995Z,14.41
2023-04-16T20:44:18.586Z,14.42
2023-04-16T20:46:45.242Z,14.47
2023-04-16T20:49:12.059Z,14.49
2023-04-16T20:51:38.768Z,14.63
2023-04-16T20:54:05.348Z,14.77
2023-04-16T20:56:31.976Z,14.80
2023-04-16T20:58:58.550Z,14.42
2023-04-16T21:01:25.300Z,14.47
2023-04-16T21:03:52.078Z,14.44
2023-04-16T21:06:18.739Z,14.48
2023-04-16T21:08:45.339Z,14.38
2023-04-16T21:11:11.925Z,14.74
2023-04-16T21:13:38.499Z,14.52
2023-04-16T21:16:05.223Z,14.62
2023-04-16T21:18:31.873Z,14.44
2023-04-16T21:20:58.495Z,14.67
2023-04-16T21:23:25.089Z,14.70
2023-04-16T21:25:51.686Z,14.64
2023-04-16T21:28:18.242Z,14.79
2023-04-16T21:30:44.829Z,14.74
2023-04-16T21:33:11.432Z,14.63
2023-04-16T21:35:37.991Z,14.88
2023-04-16T21:38:04.628Z,14.89
2023-04-16T21:40:31.247Z,14.54
2023-04-16T21:42:57.822Z,14.86
2023-04-16T21:45:24.452Z,14.60
2023-04-16T21:47:51.044Z,14.57
2023-04-16T21:50:17.632Z,14.85
2023-04-16T21:52:44.270Z,14.91
2023-04-16T21:55:10.859Z,14.91
2023-04-16T21:57:40.041Z,14.95
2023-04-16T22:00:06.614Z,14.71
2023-04-16T22:02:33.364Z,14.25
2023-04-16T22:05:00.107Z,14.14
2023-04-16T22:07:26.730Z,14.18
2023-04-16T22:09:53.292Z,14.66
2023-04-16T22:12:19.978Z,14.50
2023-04-16T22:14:59.638Z,14.79
2023-04-16T22:17:28.448Z,14.66
2023-04-16T22:19:55.092Z,14.58
2023-04-16T22:22:21.961Z,14.42
2023-04-16T22:24:48.698Z,14.08
2023-04-16T22:27:15.355Z,14.18
2023-04-16T22:29:41.948Z,14.41
2023-04-16T22:32:08.567Z,14.87
2023-04-16T22:34:35.164Z,14.74
2023-04-16T22:37:01.781Z,14.61
2023-04-16T22:39:28.358Z,14.15
2023-04-16T22:41:54.952Z,14.68
2023-04-16T22:44:22.045Z,14.56
2023-04-16T22:46:48.656Z,14.76
2023-04-16T22:49:15.222Z,14.85
2023-04-16T22:51:41.934Z,14.75
2023-04-16T22:54:08.528Z,14.81
2023-04-16T22:56:35.191Z,14.67
2023-04-16T22:59:01.814Z,14.29
2023-04-16T23:01:28.500Z,14.13
2023-04-16T23:03:55.366Z,14.07
2023-04-16T23:06:22.024Z,14.45
2023-04-16T23:08:48.661Z,14.48
2023-04-16T23:11:15.350Z,14.38
2023-04-16T23:13:41.969Z,14.40
2023-04-16T23:16:08.674Z,14.58
2023-04-16T23:18:35.282Z,14.80
2023-04-16T23:21:02.087Z,14.54
2023-04-16T23:23:28.661Z,14.55
2023-04-16T23:25:55.270Z,14.62
2023-04-16T23:28:21.854Z,14.86
2023-04-16T23:30:48.453Z,14.76
2023-04-16T23:33:15.127Z,14.44
2023-04-16T23:35:41.767Z,14.70
2023-04-16T23:38:08.339Z,14.59
2023-04-16T23:40:34.922Z,14.82
2023-04-16T23:43:01.503Z,14.70
2023-04-16T23:45:28.172Z,14.45
2023-04-16T23:47:54.822Z,14.59
2023-04-16T23:50:21.603Z,14.57
2023-04-16T23:52:48.200Z,14.73
2023-04-16T23:55:14.972Z,14.54
2023-04-16T23:57:41.589Z,14.61
